Time;durP1;ratioP1;P1;durP2;ratioP2;P2;SDS_P1;SDS_P2;PMS_P1;PMS_P2;Temp;Humidity;BMP_temperature;BMP_pressure;BME280_temperature;BME280_humidity;BME280_pressure;Samples;Min_cycle;Max_cycle;Signal;HPM_P1;HPM_P2
2021/05/11 00:01:16;;;;;;;6.47;4.95;;;;;;;10.63;83.77;92356.97;5002263;28;20038;-75
2021/05/11 00:03:43;;;;;;;8.93;5.30;;;;;;;10.65;84.58;92353.25;5010120;28;20052;-75
2021/05/11 00:06:10;;;;;;;10.07;5.40;;;;;;;10.69;84.10;92349.00;4968474;28;20046;-75
2021/05/11 00:08:35;;;;;;;8.05;4.50;;;;;;;10.74;81.92;92360.19;4998029;28;20046;-75
2021/05/11 00:11:01;;;;;;;7.95;4.95;;;;;;;10.69;84.11;92359.47;5006232;28;20110;-75
2021/05/11 00:13:27;;;;;;;7.38;5.00;;;;;;;10.63;84.43;92367.44;5009966;28;20104;-75
2021/05/11 00:15:53;;;;;;;10.15;4.55;;;;;;;10.71;82.29;92346.88;4992255;28;20049;-75
2021/05/11 00:18:18;;;;;;;6.40;4.22;;;;;;;10.87;81.03;92345.53;5006825;28;20038;-75
2021/05/11 00:20:44;;;;;;;6.68;4.32;;;;;;;10.83;81.52;92352.44;4992671;28;20061;-75
2021/05/11 00:23:10;;;;;;;6.10;4.32;;;;;;;10.73;81.80;92335.06;4989907;28;20034;-75
2021/05/11 00:25:35;;;;;;;6.47;4.70;;;;;;;10.66;83.10;92332.03;4980097;28;20044;-75
2021/05/11 00:28:02;;;;;;;7.40;5.10;;;;;;;10.57;84.21;92315.47;5009971;28;20056;-75
2021/05/11 00:30:28;;;;;;;6.95;4.60;;;;;;;10.54;83.85;92298.50;5010723;28;20093;-75
2021/05/11 00:32:53;;;;;;;6.68;4.45;;;;;;;10.52;84.07;92300.63;4999405;28;20062;-75
2021/05/11 00:35:19;;;;;;;8.15;4.65;;;;;;;10.47;84.29;92295.50;4980113;28;20475;-74
2021/05/11 00:37:45;;;;;;;8.25;4.75;;;;;;;10.43;85.49;92283.28;5015909;28;20129;-75
2021/05/11 00:40:12;;;;;;;5.07;3.50;;;;;;;10.55;82.86;92284.34;5017147;28;20041;-75
2021/05/11 00:42:37;;;;;;;7.47;3.70;;;;;;;10.57;82.74;92290.06;4998659;28;20052;-75
2021/05/11 00:45:05;;;;;;;5.38;3.10;;;;;;;10.80;80.40;92279.69;4997884;28;20587;-75
2021/05/11 00:47:31;;;;;;;5.10;3.40;;;;;;;10.89;79.51;92264.84;5012478;28;20068;-75
2021/05/11 00:49:57;;;;;;;6.38;3.85;;;;;;;10.81;81.47;92262.91;4997027;28;20448;-75
2021/05/11 00:52:23;;;;;;;5.25;3.67;;;;;;;10.73;82.45;92256.50;4997079;28;20038;-75
2021/05/11 00:54:48;;;;;;;6.50;4.00;;;;;;;10.68;83.23;92248.00;5010975;28;20038;-75
2021/05/11 00:57:15;;;;;;;6.22;4.22;;;;;;;10.61;84.15;92248.38;4997202;28;20415;-75
2021/05/11 00:59:40;;;;;;;6.95;3.97;;;;;;;10.61;84.24;92254.38;4998840;28;20032;-75
2021/05/11 01:02:08;;;;;;;6.07;4.10;;;;;;;10.57;83.99;92255.25;5016704;28;20033;-75
2021/05/11 01:04:36;;;;;;;7.72;3.80;;;;;;;10.55;85.12;92260.00;4998289;28;20036;-75
2021/05/11 01:07:04;;;;;;;6.45;3.92;;;;;;;10.53;84.84;92255.06;4966750;28;20034;-75
2021/05/11 01:09:30;;;;;;;6.45;3.90;;;;;;;10.51;85.26;92256.41;5015822;28;20080;-75
2021/05/11 01:11:56;;;;;;;7.53;3.95;;;;;;;10.49;85.98;92251.50;5016712;28;20079;-75
2021/05/11 01:14:25;;;;;;;7.38;4.35;;;;;;;10.49;85.98;92264.56;4991831;28;20447;-75
2021/05/11 01:16:55;;;;;;;7.43;3.90;;;;;;;10.47;86.08;92258.06;4996855;28;20038;-75
2021/05/11 01:22:22;;;;;;;7.75;4.55;;;;;;;10.44;86.58;92272.50;5016573;28;20108;-75
2021/05/11 01:24:52;;;;;;;6.15;4.10;;;;;;;10.42;86.66;92266.78;5015152;28;20038;-75
2021/05/11 02:23:38;;;;;;;6.95;3.70;;;;;;;10.65;84.39;92204.06;4981534;28;20480;-76
2021/05/11 02:26:04;;;;;;;7.10;3.55;;;;;;;10.59;84.64;92216.50;4991221;28;20117;-76
2021/05/11 02:28:30;;;;;;;6.78;3.65;;;;;;;10.54;85.60;92212.13;4991439;28;20380;-76
2021/05/11 02:30:55;;;;;;;6.32;3.80;;;;;;;10.49;85.46;92209.63;4992738;28;20085;-76
2021/05/11 02:33:22;;;;;;;7.40;4.15;;;;;;;10.47;86.31;92229.28;4988542;28;20038;-76
2021/05/11 02:35:48;;;;;;;8.48;4.10;;;;;;;10.40;88.44;92248.78;4956057;28;20053;-76
2021/05/11 02:38:14;;;;;;;5.40;3.58;;;;;;;10.36;87.62;92231.31;4966543;28;20476;-76
2021/05/11 02:40:41;;;;;;;7.45;4.07;;;;;;;10.34;87.42;92228.22;4992419;28;20038;-76
2021/05/11 02:43:20;;;;;;;6.50;4.18;;;;;;;10.31;87.54;92226.16;4952405;28;20126;-76
2021/05/11 02:45:45;;;;;;;7.30;3.92;;;;;;;10.28;87.19;92208.41;4973073;28;20122;-76
2021/05/11 02:48:11;;;;;;;9.02;4.25;;;;;;;10.26;87.54;92200.09;4973724;28;20455;-76
2021/05/11 02:50:37;;;;;;;6.28;3.95;;;;;;;10.27;88.17;92201.63;4973120;28;20085;-76
2021/05/11 02:53:03;;;;;;;6.00;3.30;;;;;;;10.28;86.05;92182.25;4972683;28;20035;-76
2021/05/11 02:55:29;;;;;;;8.25;3.50;;;;;;;10.24;87.35;92195.13;4954060;28;20126;-76
2021/05/11 02:57:56;;;;;;;8.65;3.85;;;;;;;10.20;87.23;92202.03;4973627;28;20035;-76
2021/05/11 03:00:23;;;;;;;6.18;4.03;;;;;;;10.16;87.44;92207.06;4972362;28;20560;-76
2021/05/11 03:02:49;;;;;;;7.65;4.20;;;;;;;10.12;87.12;92198.22;4972662;28;20086;-76
2021/05/11 03:05:16;;;;;;;5.53;4.10;;;;;;;10.10;87.46;92184.66;4971369;28;20047;-77
2021/05/11 03:07:42;;;;;;;5.78;4.07;;;;;;;10.08;87.79;92186.78;4977258;28;20026;-76
2021/05/11 03:10:10;;;;;;;8.77;4.80;;;;;;;10.07;88.16;92180.03;4992078;28;20034;-76
2021/05/11 03:12:36;;;;;;;11.93;4.63;;;;;;;10.09;89.53;92180.50;4971527;28;20116;-76
2021/05/11 03:15:02;;;;;;;8.25;4.60;;;;;;;10.06;88.84;92175.84;4935903;29;20394;-76
2021/05/11 03:17:28;;;;;;;6.90;4.88;;;;;;;10.05;89.51;92174.31;4958173;28;20516;-76
2021/05/11 03:19:54;;;;;;;7.22;4.93;;;;;;;10.06;90.02;92170.63;4991013;28;20062;-76
2021/05/11 03:22:19;;;;;;;8.38;4.32;;;;;;;10.03;90.30;92181.66;4991152;28;20105;-76
2021/05/11 03:24:45;;;;;;;6.53;4.20;;;;;;;10.00;89.55;92187.47;4991923;28;20520;-76
2021/05/11 03:27:16;;;;;;;6.90;4.50;;;;;;;9.99;89.39;92178.06;4991202;28;20038;-76
2021/05/11 03:29:42;;;;;;;6.07;4.25;;;;;;;9.99;89.10;92180.69;4956255;28;20567;-76
2021/05/11 03:32:08;;;;;;;6.65;4.47;;;;;;;10.01;89.92;92178.56;4954952;28;20045;-76
2021/05/11 03:34:37;;;;;;;6.45;4.10;;;;;;;9.98;89.01;92169.47;4972114;28;20046;-77
2021/05/11 03:37:04;;;;;;;7.97;4.40;;;;;;;9.99;88.81;92178.06;4967958;28;20062;-76
2021/05/11 03:39:38;;;;;;;6.18;4.30;;;;;;;10.00;89.59;92187.47;4978203;28;20026;-77
2021/05/11 03:42:11;;;;;;;5.85;3.45;;;;;;;10.02;87.85;92193.19;4992948;28;20523;-77
2021/05/11 03:44:39;;;;;;;6.40;3.63;;;;;;;10.01;88.53;92183.78;4972644;28;20110;-77
2021/05/11 03:47:05;;;;;;;7.00;3.83;;;;;;;10.00;88.34;92180.41;4975253;28;20022;-77
2021/05/11 03:49:31;;;;;;;6.28;4.18;;;;;;;10.00;88.18;92183.03;4972358;28;20481;-78
2021/05/11 03:51:56;;;;;;;5.50;4.00;;;;;;;9.99;88.44;92171.00;4973588;28;20062;-78
2021/05/11 03:54:22;;;;;;;7.43;4.20;;;;;;;10.01;88.85;92181.16;4972135;28;20053;-77
2021/05/11 03:56:49;;;;;;;8.20;4.10;;;;;;;10.00;90.08;92192.72;4959548;28;20042;-77
2021/05/11 03:59:14;;;;;;;6.32;4.90;;;;;;;9.99;89.11;92170.22;4938639;28;20117;-77
2021/05/11 04:01:40;;;;;;;7.38;3.72;;;;;;;9.98;87.96;92161.59;4965322;28;20106;-77
2021/05/11 04:04:06;;;;;;;7.47;3.40;;;;;;;10.10;86.63;92165.59;4973369;28;20087;-78
2021/05/11 04:06:31;;;;;;;5.07;2.90;;;;;;;10.19;85.42;92175.06;4960595;28;20292;-76
2021/05/11 04:09:05;;;;;;;6.63;2.88;;;;;;;10.28;85.56;92187.50;4939619;29;20019;-77
2021/05/11 04:16:46;;;;;;;8.15;3.75;;;;;;;10.10;87.79;92194.34;4948628;28;20526;-77
2021/05/11 04:19:12;;;;;;;7.63;5.30;;;;;;;10.08;88.07;92205.09;4987932;28;20126;-77
2021/05/11 04:21:38;;;;;;;6.70;4.70;;;;;;;10.05;88.60;92195.22;4959855;28;20092;-77
2021/05/11 04:24:06;;;;;;;5.82;4.47;;;;;;;10.04;88.57;92193.66;4974917;28;20452;-77
2021/05/11 04:26:32;;;;;;;6.47;4.07;;;;;;;10.06;88.62;92188.91;4974950;28;20403;-77
2021/05/11 04:28:59;;;;;;;7.97;4.22;;;;;;;10.02;89.17;92195.81;4991908;28;20030;-77
2021/05/11 04:31:24;;;;;;;6.97;4.15;;;;;;;10.02;89.10;92214.13;4968127;28;20043;-77
2021/05/11 04:33:50;;;;;;;9.75;3.95;;;;;;;10.01;89.32;92204.72;4973034;28;20408;-77
2021/05/11 04:36:16;;;;;;;5.22;4.13;;;;;;;10.00;89.12;92201.31;4972070;28;20098;-77
2021/05/11 04:38:42;;;;;;;6.45;4.00;;;;;;;9.99;88.85;92205.00;4972706;28;20408;-77
2021/05/11 04:41:08;;;;;;;8.23;3.72;;;;;;;9.99;88.51;92201.59;4974117;28;20049;-77
2021/05/11 04:43:36;;;;;;;5.85;3.80;;;;;;;9.98;88.94;92202.69;4991309;28;20088;-77
2021/05/11 04:48:39;;;;;;;5.43;3.85;;;;;;;9.99;89.47;92212.06;4991485;28;20046;-77
2021/05/11 04:51:05;;;;;;;5.80;3.63;;;;;;;9.99;89.99;92199.75;4974856;28;20039;-77
2021/05/11 04:53:31;;;;;;;6.47;3.83;;;;;;;9.98;89.24;92189.59;4972280;28;20497;-77
2021/05/11 04:55:56;;;;;;;5.32;3.72;;;;;;;9.99;89.44;92199.75;4972705;28;20114;-77
2021/05/11 04:58:22;;;;;;;5.95;3.30;;;;;;;10.00;89.09;92192.72;4954837;28;20043;-77
2021/05/11 05:00:50;;;;;;;6.07;3.30;;;;;;;10.03;89.28;92186.88;4972695;28;20023;-78
2021/05/11 05:03:24;;;;;;;5.05;2.88;;;;;;;10.04;87.68;92191.03;4981722;28;20539;-77
2021/05/11 05:05:50;;;;;;;5.15;3.42;;;;;;;10.06;88.16;92181.06;4978866;28;20035;-78
2021/05/11 05:08:15;;;;;;;4.40;2.97;;;;;;;10.08;88.01;92188.63;4986722;28;20034;-77
2021/05/11 05:10:41;;;;;;;5.13;2.80;;;;;;;10.17;87.21;92177.19;4981268;28;20035;-78
2021/05/11 05:13:07;;;;;;;5.78;3.10;;;;;;;10.20;86.15;92166.19;4969672;28;20039;-78
2021/05/11 05:15:32;;;;;;;5.28;2.80;;;;;;;10.20;85.66;92154.94;4992839;28;20050;-79
2021/05/11 05:17:58;;;;;;;7.80;2.92;;;;;;;10.16;85.61;92154.75;4959152;28;20047;-78
2021/05/11 05:20:24;;;;;;;6.47;3.53;;;;;;;10.14;87.27;92151.63;4993238;28;20035;-77
2021/05/11 05:22:50;;;;;;;5.50;3.20;;;;;;;10.11;87.34;92139.16;4978468;28;20111;-79
2021/05/11 05:25:23;;;;;;;5.40;3.13;;;;;;;10.12;88.04;92140.69;4985296;28;20033;-78
2021/05/11 05:27:58;;;;;;;6.75;2.90;;;;;;;10.06;88.02;92136.63;4966289;28;20390;-78
2021/05/11 05:30:24;;;;;;;7.97;3.28;;;;;;;10.18;86.97;92142.16;4981411;28;20049;-78
2021/05/11 05:32:53;;;;;;;7.18;3.38;;;;;;;10.11;88.42;92140.97;4967206;28;20493;-77
2021/05/11 05:35:19;;;;;;;7.95;3.60;;;;;;;10.00;88.63;92140.41;4977387;28;20122;-74
2021/05/11 05:37:45;;;;;;;5.68;3.45;;;;;;;9.98;88.99;92139.91;4988365;28;20070;-78
2021/05/11 05:40:12;;;;;;;5.13;3.22;;;;;;;9.98;89.38;92145.91;4978906;28;20031;-78
2021/05/11 05:42:37;;;;;;;6.80;3.72;;;;;;;9.99;89.90;92144.06;4959419;28;20469;-78
2021/05/11 05:45:04;;;;;;;7.03;3.60;;;;;;;10.01;89.40;92152.41;4982688;28;20268;-77
2021/05/11 05:47:30;;;;;;;7.10;3.45;;;;;;;9.95;89.86;92143.09;4977663;28;20039;-77
2021/05/11 05:50:02;;;;;;;6.97;3.60;;;;;;;9.95;89.67;92153.56;4978981;28;20126;-76
2021/05/11 05:52:37;;;;;;;6.53;3.45;;;;;;;9.93;89.31;92150.47;4974086;28;20042;-77
2021/05/11 05:55:03;;;;;;;5.97;3.35;;;;;;;9.96;90.00;92155.91;4944871;28;20398;-77
2021/05/11 05:57:29;;;;;;;6.50;4.05;;;;;;;9.65;91.76;92160.13;4977714;28;20054;-77
2021/05/11 05:59:55;;;;;;;8.20;4.40;;;;;;;9.65;91.85;92160.13;4976877;28;20030;-75
2021/05/11 06:02:23;;;;;;;7.43;3.85;;;;;;;9.68;91.79;92146.47;4976447;28;20038;-75
2021/05/11 06:04:48;;;;;;;8.02;4.40;;;;;;;9.62;91.70;92148.41;4984917;28;20130;-77
2021/05/11 06:07:15;;;;;;;8.60;4.50;;;;;;;9.56;92.33;92158.16;4992765;28;20109;-78
2021/05/11 06:09:40;;;;;;;7.25;4.05;;;;;;;9.54;92.33;92160.28;4989372;28;20031;-78
2021/05/11 06:12:18;;;;;;;5.82;3.83;;;;;;;9.50;92.98;92161.13;4966447;28;20440;-77
2021/05/11 06:17:18;;;;;;;8.10;4.30;;;;;;;9.50;92.64;92174.19;4962738;28;20053;-77
2021/05/11 06:19:46;;;;;;;513.72;25.80;;;;;;;9.47;93.38;92172.16;4978177;28;20413;-77
2021/05/11 06:22:13;;;;;;;443.77;20.42;;;;;;;9.51;93.21;92170.53;4959959;28;20031;-78
2021/05/11 06:24:40;;;;;;;104.25;7.40;;;;;;;9.49;93.58;92162.22;4976576;28;20041;-77
2021/05/11 06:27:07;;;;;;;5.03;3.15;;;;;;;9.46;92.86;92160.19;4960136;28;20066;-78
2021/05/11 06:29:36;;;;;;;4.63;3.20;;;;;;;9.50;92.42;92161.94;4976498;28;20039;-78
2021/05/11 06:32:03;;;;;;;4.65;2.72;;;;;;;9.56;92.08;92168.59;4961044;28;20688;-75
2021/05/11 06:34:29;;;;;;;5.43;2.67;;;;;;;9.57;92.72;92166.78;4928228;28;20043;-78
2021/05/11 06:36:55;;;;;;;4.95;2.97;;;;;;;9.59;92.75;92164.63;4960454;28;20031;-78
2021/05/11 06:39:20;;;;;;;382.52;17.25;;;;;;;9.52;93.30;92161.63;4944119;28;20035;-76
2021/05/11 06:41:49;;;;;;;3.67;2.38;;;;;;;9.48;93.03;92155.41;4958776;28;20055;-78
2021/05/11 06:44:36;;;;;;;5.78;2.38;;;;;;;9.46;93.22;92141.91;4976634;28;20046;-79
2021/05/11 06:49:45;;;;;;;4.93;2.60;;;;;;;9.49;93.65;92156.97;4959162;28;20519;-78
2021/05/11 06:54:56;;;;;;;6.20;2.50;;;;;;;9.38;93.77;92157.13;4977412;28;20166;-78
2021/05/11 06:57:21;;;;;;;4.53;2.42;;;;;;;9.33;94.02;92146.78;4959764;28;20130;-78
2021/05/11 06:59:47;;;;;;;4.13;2.33;;;;;;;9.40;93.56;92150.88;4943260;28;20031;-78
2021/05/11 07:02:13;;;;;;;4.38;2.05;;;;;;;9.37;93.64;92139.16;4974874;28;20028;-78
2021/05/11 07:04:38;;;;;;;4.07;2.00;;;;;;;9.42;93.72;92133.06;4996001;28;20034;-78
2021/05/11 07:07:09;;;;;;;3.90;2.10;;;;;;;9.46;93.45;92141.91;4996745;28;20030;-78
2021/05/11 07:15:11;;;;;;;3.28;1.90;;;;;;;9.50;92.95;92135.00;4962728;28;20046;-78
2021/05/11 07:17:37;;;;;;;3.03;1.70;;;;;;;9.54;92.17;92136.00;4973717;28;20062;-78
2021/05/11 07:20:03;;;;;;;2.42;1.52;;;;;;;9.53;92.29;92132.59;4977170;28;20520;-78
2021/05/11 07:22:29;;;;;;;2.80;1.58;;;;;;;9.59;92.43;92146.34;4977697;28;20026;-78
2021/05/11 07:24:56;;;;;;;4.72;1.90;;;;;;;9.62;92.47;92143.19;4963218;28;20042;-76
2021/05/11 07:30:13;;;;;;;2.78;1.60;;;;;;;9.68;92.47;92149.88;4978118;28;20035;-78
2021/05/11 07:32:38;;;;;;;4.00;2.08;;;;;;;9.67;92.23;92147.53;4975880;28;20145;-77
2021/05/11 07:35:05;;;;;;;3.30;1.77;;;;;;;9.70;92.44;92144.34;4976391;28;20036;-79
2021/05/11 07:37:30;;;;;;;2.95;1.60;;;;;;;9.72;92.30;92140.38;4943545;28;20520;-78
2021/05/11 07:39:56;;;;;;;2.70;1.60;;;;;;;9.71;91.64;92128.38;4985761;28;20034;-77
2021/05/11 07:42:22;;;;;;;2.75;1.40;;;;;;;9.75;91.66;92124.13;4961438;28;20069;-77
2021/05/11 07:44:50;;;;;;;3.88;1.70;;;;;;;9.75;91.49;92111.06;4996042;28;20038;-79
2021/05/11 07:56:29;;;;;;;3.20;1.50;;;;;;;9.88;91.11;92127.03;4978075;28;20542;-78
2021/05/11 08:16:41;;;;;;;4.10;2.00;;;;;;;9.68;93.44;92107.25;4989435;28;20063;-78
2021/05/11 08:19:13;;;;;;;4.13;2.05;;;;;;;9.67;93.58;92106.50;4982620;28;20054;-78
2021/05/11 08:29:42;;;;;;;2.58;1.58;;;;;;;9.83;92.12;92111.44;4980290;28;20484;-77
2021/05/11 08:32:07;;;;;;;2.78;1.50;;;;;;;9.77;92.17;92113.38;4988953;28;20031;-77
2021/05/11 08:34:33;;;;;;;2.10;1.30;;;;;;;9.72;92.30;92098.56;4973075;28;20050;-77
2021/05/11 08:36:58;;;;;;;3.47;1.60;;;;;;;9.75;92.66;92095.38;4993484;28;20038;-77
2021/05/11 08:39:24;;;;;;;2.75;1.60;;;;;;;9.71;92.64;92097.00;4992787;28;20030;-78
2021/05/11 08:41:49;;;;;;;2.38;1.50;;;;;;;9.51;93.45;92097.38;4992170;28;20232;-77
2021/05/11 08:44:16;;;;;;;2.20;1.50;;;;;;;9.35;94.06;92097.63;4940254;28;20046;-77
2021/05/11 08:46:42;;;;;;;2.83;1.70;;;;;;;9.37;94.24;92100.75;4974629;28;20055;-78
2021/05/11 08:49:12;;;;;;;2.90;1.80;;;;;;;9.49;93.94;92092.44;4958158;28;20037;-77
2021/05/11 08:51:55;;;;;;;2.80;1.77;;;;;;;9.64;93.90;92078.34;4975850;28;20209;-78
2021/05/11 09:27:08;;;;;;;3.33;1.80;;;;;;;10.70;89.40;92084.31;4960472;29;20039;-78
2021/05/11 09:56:58;;;;;;;1.42;1.00;;;;;;;10.84;86.47;92105.22;4960662;28;20046;-77
2021/05/11 10:10:53;;;;;;;1.88;0.80;;;;;;;10.76;86.49;92088.38;4978044;28;20045;-76
2021/05/11 10:41:28;;;;;;;2.03;1.10;;;;;;;10.92;87.24;92090.63;4996677;28;20036;-78
2021/05/11 10:46:46;;;;;;;2.20;1.10;;;;;;;10.72;87.28;92081.41;4994980;28;20076;-78
2021/05/11 10:49:43;;;;;;;1.77;1.10;;;;;;;10.53;87.57;92092.03;4999547;28;20039;-79
2021/05/11 10:52:17;;;;;;;1.90;1.20;;;;;;;10.54;87.79;92089.13;4936084;28;20050;-78
2021/05/11 10:55:00;;;;;;;0.90;0.90;;;;;;;10.43;88.75;92090.41;4996809;28;20117;-78
2021/05/11 10:57:32;;;;;;;1.52;1.20;;;;;;;10.35;89.14;92088.47;4996280;28;20408;-76
2021/05/11 11:00:17;;;;;;;2.17;1.42;;;;;;;10.38;89.13;92087.88;4979488;28;20425;-78
2021/05/11 11:02:47;;;;;;;1.73;1.20;;;;;;;10.42;88.87;92094.06;4964999;28;20227;-77
2021/05/11 11:05:38;;;;;;;1.40;1.10;;;;;;;10.41;88.59;92090.69;5008643;28;20555;-78
2021/05/11 11:08:04;;;;;;;1.95;1.23;;;;;;;10.41;88.76;92092.53;5000481;28;20045;-78
2021/05/11 11:10:30;;;;;;;1.80;1.30;;;;;;;10.40;88.73;92096.22;4997066;28;20026;-78
2021/05/11 11:12:57;;;;;;;1.65;1.25;;;;;;;10.41;88.75;92092.53;5014144;28;20045;-78
2021/05/11 11:15:22;;;;;;;1.77;1.35;;;;;;;10.11;89.92;92084.22;4993976;28;20034;-78
2021/05/11 11:17:52;;;;;;;2.78;1.50;;;;;;;10.14;89.48;92083.63;4997645;28;20417;-78
2021/05/11 11:20:20;;;;;;;3.65;1.70;;;;;;;10.16;88.98;92085.97;5003457;28;20076;-78
2021/05/11 11:26:09;;;;;;;10.02;1.75;;;;;;;9.94;90.88;92078.81;4978069;28;20499;-78
2021/05/11 11:28:35;;;;;;;1.77;1.35;;;;;;;9.69;91.43;92077.47;4989661;28;20066;-78
2021/05/11 11:31:00;;;;;;;1.92;1.25;;;;;;;9.76;90.82;92073.38;4976014;28;20112;-77
2021/05/11 11:33:26;;;;;;;2.95;1.30;;;;;;;9.68;91.11;92073.28;4993688;28;20476;-78
2021/05/11 11:35:52;;;;;;;2.83;1.52;;;;;;;9.61;91.01;92073.66;4994285;28;20030;-76
2021/05/11 11:38:23;;;;;;;1.70;1.20;;;;;;;9.60;90.52;92082.59;4995186;28;20391;-78
2021/05/11 11:40:57;;;;;;;2.08;1.40;;;;;;;9.48;91.45;92077.84;4997565;28;20028;-78
2021/05/11 11:43:27;;;;;;;3.13;1.60;;;;;;;9.49;92.07;92078.59;4997988;28;20494;-78
2021/05/11 11:45:53;;;;;;;2.15;1.40;;;;;;;9.50;92.24;92077.53;4993833;28;20117;-78
2021/05/11 11:48:21;;;;;;;2.00;1.40;;;;;;;9.43;91.94;92074.53;4989546;28;20346;-77
2021/05/11 11:50:57;;;;;;;3.45;1.40;;;;;;;9.40;91.90;92070.66;5001429;28;20461;-77
2021/05/11 11:53:28;;;;;;;2.15;1.45;;;;;;;9.41;91.92;92071.41;5012225;28;20048;-78
2021/05/11 11:58:32;;;;;;;2.75;1.23;;;;;;;9.40;91.41;92080.34;5009369;28;20034;-78
2021/05/11 12:00:58;;;;;;;1.95;1.20;;;;;;;9.44;91.59;92076.84;5011152;28;20412;-78
2021/05/11 12:03:24;;;;;;;2.45;1.35;;;;;;;9.43;91.34;92071.91;5013135;28;20033;-77
2021/05/11 12:05:53;;;;;;;2.25;1.38;;;;;;;9.44;91.11;92066.41;4992850;28;20415;-77
2021/05/11 12:08:26;;;;;;;3.40;1.20;;;;;;;9.50;91.36;92069.69;4991692;28;20064;-76
2021/05/11 12:11:00;;;;;;;2.65;1.50;;;;;;;9.54;91.76;92065.44;4974320;28;20126;-77
2021/05/11 12:13:31;;;;;;;2.90;1.75;;;;;;;9.57;91.45;92060.41;4992071;28;20408;-78
2021/05/11 12:21:53;;;;;;;2.97;1.40;;;;;;;9.73;91.22;92058.28;4992467;28;20046;-78
2021/05/11 12:24:30;;;;;;;1.88;1.35;;;;;;;9.75;91.12;92056.16;5006118;28;20045;-78
2021/05/11 12:27:15;;;;;;;1.65;1.30;;;;;;;9.79;90.71;92058.97;4992834;28;20045;-77
2021/05/11 12:29:59;;;;;;;3.13;1.20;;;;;;;9.62;91.12;92054.31;4993338;28;20053;-79
2021/05/11 12:32:25;;;;;;;1.77;1.30;;;;;;;9.61;91.18;92052.75;4993787;28;20400;-78
2021/05/11 12:35:13;;;;;;;2.08;1.30;;;;;;;9.61;90.92;92060.59;4992671;28;20034;-78
2021/05/11 12:37:47;;;;;;;2.42;1.20;;;;;;;9.53;91.77;92053.44;4993149;28;20068;-77
2021/05/11 12:40:28;;;;;;;1.95;1.30;;;;;;;9.46;92.58;92048.59;4992162;28;20161;-77
2021/05/11 12:42:57;;;;;;;2.90;1.55;;;;;;;9.46;92.83;92063.50;4992633;28;20046;-78
2021/05/11 12:45:23;;;;;;;2.33;1.35;;;;;;;9.47;92.40;92054.59;4975395;28;20049;-79
2021/05/11 12:47:55;;;;;;;5.13;1.80;;;;;;;9.51;92.96;92056.34;4974796;28;20109;-78
2021/05/11 12:50:26;;;;;;;3.40;1.92;;;;;;;9.42;93.55;92047.63;4972653;28;20380;-79
2021/05/11 12:52:53;;;;;;;2.85;1.70;;;;;;;9.40;93.62;92048.97;4973750;28;20521;-78
2021/05/11 12:56:27;;;;;;;2.22;1.50;;;;;;;9.43;93.56;92054.38;4973880;28;20031;-78
2021/05/11 13:01:08;;;;;;;2.22;1.30;;;;;;;9.43;91.45;92061.47;5012029;28;20038;-78
2021/05/11 13:03:47;;;;;;;3.00;1.50;;;;;;;9.43;92.80;92070.06;4995289;28;20139;-78
2021/05/11 13:17:05;;;;;;;100.85;4.78;;;;;;;9.19;94.48;92065.00;4967370;28;20065;-76
2021/05/11 13:35:07;;;;;;;834.28;27.75;;;;;;;9.12;95.51;92067.22;4992807;28;20054;-77
2021/05/11 13:37:32;;;;;;;760.85;27.23;;;;;;;8.97;95.94;92068.25;4988132;28;20039;-78
2021/05/11 13:40:00;;;;;;;785.72;34.95;;;;;;;9.03;95.99;92056.66;4977204;28;20456;-78
2021/05/11 13:42:27;;;;;;;929.15;31.50;;;;;;;8.93;96.40;92054.97;4994683;28;20042;-78
2021/05/11 13:44:56;;;;;;;1772.68;65.80;;;;;;;8.99;96.45;92060.13;4926672;28;20038;-78
2021/05/11 13:47:23;;;;;;;39.30;3.00;;;;;;;9.05;96.13;92058.97;4973814;28;20098;-77
2021/05/11 13:49:53;;;;;;;287.08;10.73;;;;;;;8.89;96.15;92061.84;4957553;28;20023;-77
2021/05/11 13:52:19;;;;;;;1039.05;50.80;;;;;;;8.82;96.50;92058.81;4971691;28;20109;-78
2021/05/11 13:54:48;;;;;;;1239.22;47.25;;;;;;;8.91;97.04;92054.47;4955471;28;20031;-74
2021/05/11 14:05:05;;;;;;;1015.10;36.38;;;;;;;8.95;96.22;92050.25;4975910;28;20031;-77
2021/05/11 14:07:31;;;;;;;623.72;19.95;;;;;;;8.98;96.68;92054.13;4958653;28;20041;-77
2021/05/11 14:09:58;;;;;;;708.20;20.77;;;;;;;9.02;96.82;92046.50;4974593;28;20043;-78
2021/05/11 14:12:23;;;;;;;861.22;26.20;;;;;;;9.02;96.32;92043.88;4991360;28;20034;-77
2021/05/11 14:14:50;;;;;;;276.05;10.57;;;;;;;9.07;96.19;92047.16;4958750;28;20099;-78
2021/05/11 14:17:15;;;;;;;291.15;10.25;;;;;;;9.13;95.22;92040.03;4987272;28;20146;-77
2021/05/11 14:19:42;;;;;;;435.42;15.98;;;;;;;9.09;95.35;92029.38;4977178;28;20500;-77
2021/05/11 14:22:07;;;;;;;6.53;2.70;;;;;;;9.17;95.61;92036.56;4994137;28;20041;-78
2021/05/11 14:24:33;;;;;;;2.83;1.58;;;;;;;9.23;94.26;92032.03;4983131;28;20038;-77
2021/05/11 14:26:59;;;;;;;2.47;1.60;;;;;;;9.23;93.96;92018.97;4981576;28;20540;-77
2021/05/11 14:29:24;;;;;;;2.53;1.40;;;;;;;9.24;94.15;92024.97;4994529;28;20042;-78
2021/05/11 14:31:50;;;;;;;2.22;1.33;;;;;;;9.29;93.25;92033.47;4980646;28;20031;-78
2021/05/11 14:34:19;;;;;;;1.90;1.25;;;;;;;9.27;92.93;92024.38;4981306;28;20034;-76
2021/05/11 14:36:45;;;;;;;1.73;1.25;;;;;;;9.21;93.10;92026.34;4963667;28;20031;-77
2021/05/11 14:39:11;;;;;;;1.40;1.02;;;;;;;9.28;92.59;92026.72;4974023;28;20037;-78
2021/05/11 14:41:37;;;;;;;1.60;1.10;;;;;;;9.32;91.97;92027.69;4989476;28;20043;-77
2021/05/11 14:44:04;;;;;;;2.33;1.40;;;;;;;9.26;92.79;92021.00;4981321;28;20047;-77
2021/05/11 14:46:29;;;;;;;2.90;1.70;;;;;;;9.24;91.11;92030.97;4963031;28;20054;-77
2021/05/11 14:48:55;;;;;;;2.25;1.35;;;;;;;9.22;90.98;92032.31;4976251;28;20031;-77
2021/05/11 14:51:20;;;;;;;2.25;1.20;;;;;;;9.25;91.40;92036.97;4975318;28;20082;-77
2021/05/11 14:53:48;;;;;;;2.40;1.30;;;;;;;9.34;91.28;92028.19;4996788;28;20044;-77
2021/05/11 14:56:14;;;;;;;1.83;1.23;;;;;;;9.31;91.54;92027.97;4971265;28;20026;-78
2021/05/11 14:58:40;;;;;;;1.70;1.13;;;;;;;9.26;91.73;92034.06;4942371;29;20118;-78
2021/05/11 15:01:06;;;;;;;2.67;1.42;;;;;;;9.31;91.18;92030.59;4988475;28;20520;-80
2021/05/11 15:03:31;;;;;;;2.53;1.38;;;;;;;9.30;90.68;92013.34;4977279;28;20126;-79
2021/05/11 15:05:57;;;;;;;1.80;1.20;;;;;;;9.29;90.69;92017.81;4961008;28;20066;-79
2021/05/11 15:08:23;;;;;;;2.63;1.00;;;;;;;9.31;89.12;92015.69;4976275;28;20031;-80
2021/05/11 15:10:49;;;;;;;1.70;1.10;;;;;;;9.37;90.03;92019.00;4959919;28;20124;-80
2021/05/11 15:13:17;;;;;;;1.70;1.20;;;;;;;9.27;89.67;92014.72;4973212;28;20046;-80
2021/05/11 15:15:47;;;;;;;1.63;1.13;;;;;;;9.31;90.05;92015.69;4976976;28;20543;-79
2021/05/11 15:18:13;;;;;;;1.80;1.20;;;;;;;9.35;89.47;92014.06;4949298;28;20058;-79
2021/05/11 15:20:38;;;;;;;2.95;1.70;;;;;;;9.42;89.13;92025.97;4957415;29;20310;-80
2021/05/11 15:23:04;;;;;;;2.38;1.40;;;;;;;9.46;90.08;92026.94;4957042;28;20039;-80
2021/05/11 15:25:30;;;;;;;2.13;1.40;;;;;;;9.51;90.21;92032.06;4957752;29;20053;-79
2021/05/11 15:27:57;;;;;;;2.08;1.40;;;;;;;9.56;90.50;92031.97;4959582;28;20062;-78
2021/05/11 15:30:25;;;;;;;2.20;1.35;;;;;;;9.59;90.43;92032.16;4976001;28;20532;-78
2021/05/11 15:32:55;;;;;;;3.58;1.40;;;;;;;9.64;91.06;92033.13;4943173;28;20117;-80
2021/05/11 15:35:23;;;;;;;2.38;1.20;;;;;;;9.67;90.69;92033.31;4970974;28;20027;-80
2021/05/11 15:37:53;;;;;;;3.45;1.30;;;;;;;9.73;90.66;92026.94;4957716;28;20031;-79
2021/05/11 15:40:20;;;;;;;1.45;1.10;;;;;;;9.76;90.11;92034.19;4957676;28;20043;-79
2021/05/11 15:42:47;;;;;;;1.50;1.10;;;;;;;9.79;90.33;92025.78;4940677;29;20019;-79
2021/05/11 15:45:13;;;;;;;1.95;1.10;;;;;;;9.84;90.47;92022.28;4956636;28;20122;-80
2021/05/11 15:47:52;;;;;;;3.38;1.20;;;;;;;9.86;90.74;92025.38;4973124;28;20039;-79
2021/05/11 15:50:27;;;;;;;2.95;1.15;;;;;;;9.93;90.97;92019.72;4970306;28;20081;-79
2021/05/11 15:52:55;;;;;;;2.35;1.10;;;;;;;9.97;90.39;92024.09;4937430;29;20047;-78
2021/05/11 15:55:22;;;;;;;0.95;0.85;;;;;;;10.00;89.99;92026.13;4952164;29;20039;-79
2021/05/11 15:57:50;;;;;;;1.50;0.90;;;;;;;9.99;89.67;92019.34;4955559;28;20373;-79
2021/05/11 16:00:16;;;;;;;2.00;1.10;;;;;;;10.00;88.67;92020.13;4971947;28;20031;-79
2021/05/11 16:02:43;;;;;;;2.35;1.10;;;;;;;9.99;89.48;92021.19;4952313;28;20392;-80
2021/05/11 16:05:09;;;;;;;4.32;1.45;;;;;;;9.69;91.49;92025.19;4949301;28;20023;-80
2021/05/11 16:07:35;;;;;;;8.05;2.20;;;;;;;9.55;92.66;92017.34;4934767;29;20071;-80
2021/05/11 16:10:03;;;;;;;117.03;5.18;;;;;;;9.52;93.08;92023.16;4937545;29;20034;-79